sensor_id;sensor_type;location;lat;lon;timestamp;P1;durP1;ratioP1;P2;durP2;ratioP2
67164;SDS011;54093;50.014;19.984;2022-09-09T00:30:14;4.22;;;3.92;;
67164;SDS011;54093;50.014;19.984;2022-09-09T00:39:47;4.80;;;4.50;;
67164;SDS011;54093;50.014;19.984;2022-09-09T00:59:02;6.10;;;5.45;;
67164;SDS011;54093;50.014;19.984;2022-09-09T01:18:12;6.47;;;5.97;;
67164;SDS011;54093;50.014;19.984;2022-09-09T01:27:35;4.30;;;4.10;;
67164;SDS011;54093;50.014;19.984;2022-09-09T01:46:25;3.90;;;3.60;;
67164;SDS011;54093;50.014;19.984;2022-09-09T02:14:50;4.40;;;4.00;;
67164;SDS011;54093;50.014;19.984;2022-09-09T02:24:16;4.85;;;4.50;;
67164;SDS011;54093;50.014;19.984;2022-09-09T02:33:38;4.80;;;4.13;;
67164;SDS011;54093;50.014;19.984;2022-09-09T02:43:02;4.17;;;3.80;;
67164;SDS011;54093;50.014;19.984;2022-09-09T02:52:27;4.72;;;4.43;;
67164;SDS011;54093;50.014;19.984;2022-09-09T03:01:55;4.95;;;4.45;;
67164;SDS011;54093;50.014;19.984;2022-09-09T03:11:16;5.75;;;5.35;;
67164;SDS011;54093;50.014;19.984;2022-09-09T03:20:37;5.93;;;4.80;;
67164;SDS011;54093;50.014;19.984;2022-09-09T03:29:58;4.82;;;4.43;;
67164;SDS011;54093;50.014;19.984;2022-09-09T03:39:19;6.07;;;5.45;;
67164;SDS011;54093;50.014;19.984;2022-09-09T03:48:40;4.85;;;4.45;;
67164;SDS011;54093;50.014;19.984;2022-09-09T03:58:00;4.10;;;3.90;;
67164;SDS011;54093;50.014;19.984;2022-09-09T04:07:21;5.05;;;4.00;;
67164;SDS011;54093;50.014;19.984;2022-09-09T04:16:42;3.90;;;3.60;;
67164;SDS011;54093;50.014;19.984;2022-09-09T04:26:05;5.35;;;4.30;;
67164;SDS011;54093;50.014;19.984;2022-09-09T04:35:26;4.88;;;4.47;;
67164;SDS011;54093;50.014;19.984;2022-09-09T04:44:47;6.85;;;4.15;;
67164;SDS011;54093;50.014;19.984;2022-09-09T04:54:08;6.35;;;4.43;;
67164;SDS011;54093;50.014;19.984;2022-09-09T05:03:29;5.95;;;5.18;;
67164;SDS011;54093;50.014;19.984;2022-09-09T05:12:52;5.57;;;5.07;;
67164;SDS011;54093;50.014;19.984;2022-09-09T05:22:23;7.13;;;4.27;;
67164;SDS011;54093;50.014;19.984;2022-09-09T05:31:44;4.30;;;3.95;;
67164;SDS011;54093;50.014;19.984;2022-09-09T05:41:05;5.88;;;5.43;;
67164;SDS011;54093;50.014;19.984;2022-09-09T05:50:27;7.10;;;5.85;;
67164;SDS011;54093;50.014;19.984;2022-09-09T05:59:47;7.05;;;5.63;;
67164;SDS011;54093;50.014;19.984;2022-09-09T06:09:08;7.22;;;5.82;;
67164;SDS011;54093;50.014;19.984;2022-09-09T06:18:30;4.97;;;4.57;;
67164;SDS011;54093;50.014;19.984;2022-09-09T06:27:51;4.38;;;4.07;;
67164;SDS011;54093;50.014;19.984;2022-09-09T06:37:11;3.83;;;3.63;;
67164;SDS011;54093;50.014;19.984;2022-09-09T06:46:32;3.63;;;3.30;;
67164;SDS011;54093;50.014;19.984;2022-09-09T06:55:53;3.92;;;3.63;;
67164;SDS011;54093;50.014;19.984;2022-09-09T07:05:15;7.13;;;3.38;;
67164;SDS011;54093;50.014;19.984;2022-09-09T07:14:36;3.05;;;2.90;;
67164;SDS011;54093;50.014;19.984;2022-09-09T07:23:57;2.95;;;2.75;;
67164;SDS011;54093;50.014;19.984;2022-09-09T07:33:18;3.08;;;2.88;;
67164;SDS011;54093;50.014;19.984;2022-09-09T07:42:40;3.90;;;2.03;;
67164;SDS011;54093;50.014;19.984;2022-09-09T07:52:01;2.40;;;2.20;;
67164;SDS011;54093;50.014;19.984;2022-09-09T08:01:29;2.10;;;2.00;;
67164;SDS011;54093;50.014;19.984;2022-09-09T08:10:52;1.73;;;1.63;;
67164;SDS011;54093;50.014;19.984;2022-09-09T08:20:13;2.75;;;1.65;;
67164;SDS011;54093;50.014;19.984;2022-09-09T08:29:34;1.50;;;1.45;;
67164;SDS011;54093;50.014;19.984;2022-09-09T08:38:55;1.63;;;1.52;;
67164;SDS011;54093;50.014;19.984;2022-09-09T08:58:19;1.80;;;1.70;;
67164;SDS011;54093;50.014;19.984;2022-09-09T09:17:27;1.38;;;1.27;;
67164;SDS011;54093;50.014;19.984;2022-09-09T09:26:59;3.25;;;1.30;;
67164;SDS011;54093;50.014;19.984;2022-09-09T09:36:35;1.00;;;0.85;;
67164;SDS011;54093;50.014;19.984;2022-09-09T09:46:17;1.00;;;1.00;;
67164;SDS011;54093;50.014;19.984;2022-09-09T09:55:44;1.00;;;1.00;;
67164;SDS011;54093;50.014;19.984;2022-09-09T10:14:41;1.30;;;1.30;;
67164;SDS011;54093;50.014;19.984;2022-09-09T10:34:17;4.40;;;1.07;;
67164;SDS011;54093;50.014;19.984;2022-09-09T10:53:44;1.15;;;1.15;;
67164;SDS011;54093;50.014;19.984;2022-09-09T11:03:09;1.20;;;1.10;;
67164;SDS011;54093;50.014;19.984;2022-09-09T11:12:50;0.93;;;0.85;;
67164;SDS011;54093;50.014;19.984;2022-09-09T11:22:31;0.70;;;0.70;;
67164;SDS011;54093;50.014;19.984;2022-09-09T11:32:00;1.00;;;1.00;;
67164;SDS011;54093;50.014;19.984;2022-09-09T11:41:36;1.92;;;0.80;;
67164;SDS011;54093;50.014;19.984;2022-09-09T11:51:07;1.85;;;0.70;;
67164;SDS011;54093;50.014;19.984;2022-09-09T12:00:44;2.10;;;0.97;;
67164;SDS011;54093;50.014;19.984;2022-09-09T12:10:20;1.45;;;0.80;;
67164;SDS011;54093;50.014;19.984;2022-09-09T12:20:30;0.87;;;0.87;;
67164;SDS011;54093;50.014;19.984;2022-09-09T12:29:45;0.88;;;0.88;;
67164;SDS011;54093;50.014;19.984;2022-09-09T12:39:29;1.95;;;1.00;;
67164;SDS011;54093;50.014;19.984;2022-09-09T12:48:55;0.98;;;0.90;;
67164;SDS011;54093;50.014;19.984;2022-09-09T12:58:26;1.10;;;1.10;;
67164;SDS011;54093;50.014;19.984;2022-09-09T13:08:06;3.45;;;1.10;;
67164;SDS011;54093;50.014;19.984;2022-09-09T13:17:31;1.13;;;0.93;;
67164;SDS011;54093;50.014;19.984;2022-09-09T13:26:55;1.75;;;1.40;;
67164;SDS011;54093;50.014;19.984;2022-09-09T13:36:29;1.10;;;1.08;;
67164;SDS011;54093;50.014;19.984;2022-09-09T13:55:17;0.70;;;0.70;;
67164;SDS011;54093;50.014;19.984;2022-09-09T14:04:38;2.00;;;1.02;;
67164;SDS011;54093;50.014;19.984;2022-09-09T14:14:01;0.82;;;0.82;;
67164;SDS011;54093;50.014;19.984;2022-09-09T14:23:22;0.70;;;0.70;;
67164;SDS011;54093;50.014;19.984;2022-09-09T14:32:44;0.80;;;0.80;;
67164;SDS011;54093;50.014;19.984;2022-09-09T14:42:05;3.08;;;0.75;;
67164;SDS011;54093;50.014;19.984;2022-09-09T14:51:26;0.98;;;0.98;;
67164;SDS011;54093;50.014;19.984;2022-09-09T15:00:49;1.27;;;1.10;;
67164;SDS011;54093;50.014;19.984;2022-09-09T15:10:10;0.80;;;0.80;;
67164;SDS011;54093;50.014;19.984;2022-09-09T15:19:31;1.17;;;1.17;;
67164;SDS011;54093;50.014;19.984;2022-09-09T15:28:52;1.40;;;1.30;;
67164;SDS011;54093;50.014;19.984;2022-09-09T15:38:14;2.85;;;1.30;;
67164;SDS011;54093;50.014;19.984;2022-09-09T15:47:36;1.13;;;1.13;;
67164;SDS011;54093;50.014;19.984;2022-09-09T15:56:58;1.55;;;1.13;;
67164;SDS011;54093;50.014;19.984;2022-09-09T16:06:21;1.80;;;1.37;;
67164;SDS011;54093;50.014;19.984;2022-09-09T16:15:43;1.83;;;1.23;;
67164;SDS011;54093;50.014;19.984;2022-09-09T16:25:04;1.60;;;1.50;;
67164;SDS011;54093;50.014;19.984;2022-09-09T16:34:26;6.13;;;1.48;;
67164;SDS011;54093;50.014;19.984;2022-09-09T16:43:46;1.80;;;1.70;;
67164;SDS011;54093;50.014;19.984;2022-09-09T16:53:08;2.13;;;1.50;;
67164;SDS011;54093;50.014;19.984;2022-09-09T17:02:29;2.40;;;2.00;;
67164;SDS011;54093;50.014;19.984;2022-09-09T17:11:50;1.98;;;1.88;;
67164;SDS011;54093;50.014;19.984;2022-09-09T17:21:13;3.53;;;2.05;;
67164;SDS011;54093;50.014;19.984;2022-09-09T17:30:36;5.40;;;2.58;;
67164;SDS011;54093;50.014;19.984;2022-09-09T17:39:57;2.33;;;2.22;;
67164;SDS011;54093;50.014;19.984;2022-09-09T17:49:18;3.40;;;2.65;;
67164;SDS011;54093;50.014;19.984;2022-09-09T17:58:39;3.75;;;2.40;;
67164;SDS011;54093;50.014;19.984;2022-09-09T18:08:00;4.68;;;2.60;;
67164;SDS011;54093;50.014;19.984;2022-09-09T18:17:21;3.13;;;2.20;;
67164;SDS011;54093;50.014;19.984;2022-09-09T18:26:42;7.35;;;2.40;;
67164;SDS011;54093;50.014;19.984;2022-09-09T18:36:05;2.70;;;2.50;;
67164;SDS011;54093;50.014;19.984;2022-09-09T18:45:27;5.15;;;2.70;;
67164;SDS011;54093;50.014;19.984;2022-09-09T18:54:48;3.85;;;2.65;;
67164;SDS011;54093;50.014;19.984;2022-09-09T19:04:10;3.78;;;2.70;;
67164;SDS011;54093;50.014;19.984;2022-09-09T19:13:32;5.63;;;3.45;;
67164;SDS011;54093;50.014;19.984;2022-09-09T19:22:53;3.38;;;2.88;;
67164;SDS011;54093;50.014;19.984;2022-09-09T19:32:13;4.70;;;2.72;;
67164;SDS011;54093;50.014;19.984;2022-09-09T19:41:35;4.13;;;3.83;;
67164;SDS011;54093;50.014;19.984;2022-09-09T19:51:00;3.75;;;3.55;;
67164;SDS011;54093;50.014;19.984;2022-09-09T20:00:24;4.47;;;4.07;;
67164;SDS011;54093;50.014;19.984;2022-09-09T20:09:45;4.63;;;4.22;;
67164;SDS011;54093;50.014;19.984;2022-09-09T20:19:07;3.55;;;3.30;;
67164;SDS011;54093;50.014;19.984;2022-09-09T20:28:30;8.57;;;4.65;;
67164;SDS011;54093;50.014;19.984;2022-09-09T20:37:57;7.40;;;5.15;;
67164;SDS011;54093;50.014;19.984;2022-09-09T20:47:29;10.02;;;5.53;;
67164;SDS011;54093;50.014;19.984;2022-09-09T20:56:50;5.65;;;5.15;;
67164;SDS011;54093;50.014;19.984;2022-09-09T21:06:12;6.53;;;4.93;;
67164;SDS011;54093;50.014;19.984;2022-09-09T21:15:34;5.53;;;5.00;;
67164;SDS011;54093;50.014;19.984;2022-09-09T21:24:55;6.32;;;4.60;;
67164;SDS011;54093;50.014;19.984;2022-09-09T21:34:16;6.57;;;6.07;;
67164;SDS011;54093;50.014;19.984;2022-09-09T21:43:37;6.60;;;5.80;;
67164;SDS011;54093;50.014;19.984;2022-09-09T21:53:01;6.32;;;5.82;;
67164;SDS011;54093;50.014;19.984;2022-09-09T22:02:22;7.03;;;6.43;;
67164;SDS011;54093;50.014;19.984;2022-09-09T22:11:43;7.22;;;6.63;;
67164;SDS011;54093;50.014;19.984;2022-09-09T22:21:05;7.10;;;6.50;;
67164;SDS011;54093;50.014;19.984;2022-09-09T22:30:28;12.13;;;8.95;;
67164;SDS011;54093;50.014;19.984;2022-09-09T22:39:49;7.30;;;6.80;;
67164;SDS011;54093;50.014;19.984;2022-09-09T22:49:09;10.82;;;8.75;;
67164;SDS011;54093;50.014;19.984;2022-09-09T22:58:31;9.00;;;8.25;;
67164;SDS011;54093;50.014;19.984;2022-09-09T23:07:53;10.30;;;9.05;;
67164;SDS011;54093;50.014;19.984;2022-09-09T23:17:17;9.75;;;8.85;;
67164;SDS011;54093;50.014;19.984;2022-09-09T23:26:40;12.90;;;11.68;;
67164;SDS011;54093;50.014;19.984;2022-09-09T23:36:07;11.52;;;10.43;;
67164;SDS011;54093;50.014;19.984;2022-09-09T23:45:32;13.88;;;10.48;;
67164;SDS011;54093;50.014;19.984;2022-09-09T23:54:53;15.85;;;14.32;;
